Time;durP1;ratioP1;P1;durP2;ratioP2;P2;SDS_P1;SDS_P2;PMS_P1;PMS_P2;Temp;Humidity;BMP_temperature;BMP_pressure;BME280_temperature;BME280_humidity;BME280_pressure;Samples;Min_cycle;Max_cycle;Signal;HPM_P1;HPM_P2
2022/08/01 00:00:11;;;;;;;3.55;2.95;;;25.40;68.80;26.60;100804.00;;;;5091382;28;20176;-38
2022/08/01 00:02:37;;;;;;;3.10;2.80;;;25.40;68.70;26.60;100804.00;;;;5090605;28;20275;-39
2022/08/01 00:05:05;;;;;;;3.78;3.20;;;25.40;68.70;26.50;100804.00;;;;5090398;28;20602;-39
2022/08/01 00:07:32;;;;;;;3.28;2.58;;;25.40;68.90;26.50;100802.00;;;;5089890;28;20200;-39
2022/08/01 00:09:58;;;;;;;4.15;2.85;;;25.40;68.70;26.50;100808.00;;;;5090185;28;20802;-39
2022/08/01 00:12:23;;;;;;;3.38;2.67;;;25.40;68.60;26.50;100797.00;;;;5090261;28;20275;-38
2022/08/01 00:14:49;;;;;;;3.83;2.70;;;25.40;68.50;26.50;100805.00;;;;5100588;28;20179;-40
2022/08/01 00:17:15;;;;;;;3.47;2.55;;;25.40;68.20;26.40;100807.00;;;;5105642;28;20233;-39
2022/08/01 00:19:41;;;;;;;3.13;2.80;;;25.30;68.20;26.40;100797.00;;;;5097161;28;20887;-38
2022/08/01 00:22:06;;;;;;;4.22;2.80;;;25.30;68.40;26.40;100800.00;;;;5090179;28;20291;-39
2022/08/01 00:24:32;;;;;;;2.70;2.42;;;25.30;68.80;26.40;100801.00;;;;5089879;28;20167;-38
2022/08/01 00:26:58;;;;;;;2.50;2.30;;;25.30;67.90;26.40;100806.00;;;;5089962;28;20577;-38
2022/08/01 00:29:23;;;;;;;2.60;2.40;;;25.30;68.00;26.30;100797.00;;;;5089948;28;20200;-39
2022/08/01 00:31:49;;;;;;;3.60;2.42;;;25.30;68.00;26.30;100801.00;;;;5089879;28;20660;-40
2022/08/01 00:34:15;;;;;;;2.75;2.40;;;25.30;68.00;26.30;100809.00;;;;5089897;28;20824;-40
2022/08/01 00:36:41;;;;;;;2.50;2.30;;;25.30;67.80;26.30;100802.00;;;;5089585;28;20662;-39
2022/08/01 00:39:06;;;;;;;4.20;2.60;;;25.30;68.00;26.30;100805.00;;;;5089584;28;20204;-39
2022/08/01 00:41:32;;;;;;;2.78;2.58;;;25.30;67.80;26.30;100803.00;;;;5090607;28;20169;-39
2022/08/01 00:43:58;;;;;;;3.67;2.38;;;25.30;67.80;26.30;100805.00;;;;5093319;28;20175;-39
2022/08/01 00:46:23;;;;;;;2.95;2.20;;;25.20;68.00;26.20;100797.00;;;;5112645;28;20172;-39
2022/08/01 00:48:49;;;;;;;3.03;2.22;;;25.20;68.00;26.20;100798.00;;;;5113091;28;20188;-38
2022/08/01 00:51:15;;;;;;;2.70;2.50;;;25.20;68.10;26.20;100801.00;;;;5097471;28;20175;-45
2022/08/01 00:53:41;;;;;;;2.58;2.38;;;25.10;68.30;26.20;100799.00;;;;5072205;28;20243;-39
2022/08/01 00:56:07;;;;;;;3.20;2.30;;;25.10;68.30;26.20;100808.00;;;;5072084;28;20165;-39
2022/08/01 00:58:33;;;;;;;2.55;2.35;;;25.00;68.70;26.10;100800.00;;;;5089162;28;20193;-39
2022/08/01 01:00:59;;;;;;;2.67;2.47;;;25.00;68.50;26.10;100797.00;;;;5071741;28;20658;-40
2022/08/01 01:03:25;;;;;;;3.90;2.50;;;25.00;68.40;26.10;100801.00;;;;5090496;28;20201;-40
2022/08/01 01:06:33;;;;;;;2.90;2.60;;;25.00;68.80;26.10;100795.00;;;;5090637;28;20172;-39
2022/08/01 01:09:41;;;;;;;3.30;2.30;;;25.00;68.60;26.00;100794.00;;;;5089934;28;20196;-39
2022/08/01 01:12:32;;;;;;;2.83;2.42;;;24.90;68.80;26.00;100802.00;;;;5081323;28;20185;-38
2022/08/01 01:15:12;;;;;;;2.60;2.40;;;24.90;68.80;25.90;100791.00;;;;5077540;28;20169;-40
2022/08/01 01:18:03;;;;;;;2.60;2.40;;;24.80;69.00;25.90;100796.00;;;;5075356;28;20171;-40
2022/08/01 01:20:37;;;;;;;2.88;2.63;;;24.80;68.70;25.90;100800.00;;;;5076699;28;20150;-39
2022/08/01 01:23:25;;;;;;;3.85;2.60;;;24.80;68.60;25.80;100797.00;;;;5075860;28;20192;-41
2022/08/01 01:26:51;;;;;;;3.28;2.50;;;24.80;68.80;25.80;100802.00;;;;5093526;28;20196;-39
2022/08/01 01:29:25;;;;;;;2.90;2.60;;;24.70;68.80;25.50;100797.00;;;;5059732;28;20655;-39
2022/08/01 01:32:10;;;;;;;3.22;2.60;;;24.70;68.90;25.70;100784.00;;;;5093236;28;20229;-38
2022/08/01 01:34:37;;;;;;;4.38;2.70;;;24.70;68.90;25.70;100797.00;;;;5076638;28;20177;-43
2022/08/01 01:37:06;;;;;;;2.60;2.40;;;24.70;69.00;25.70;100802.00;;;;5074977;28;20170;-40
2022/08/01 01:39:32;;;;;;;3.17;2.85;;;24.70;69.00;25.70;100808.00;;;;5093089;28;20181;-41
2022/08/01 01:41:57;;;;;;;3.88;2.80;;;24.60;69.20;25.60;100806.00;;;;5074802;28;20204;-38
2022/08/01 01:44:23;;;;;;;4.45;2.67;;;24.60;69.30;25.60;100812.00;;;;5075326;28;20253;-39
2022/08/01 01:46:49;;;;;;;3.83;2.83;;;24.50;69.40;25.60;100810.00;;;;5074895;28;20188;-39
2022/08/01 01:49:15;;;;;;;3.45;2.53;;;24.50;69.20;25.60;100806.00;;;;5074977;28;20185;-39
2022/08/01 01:51:41;;;;;;;3.38;2.90;;;24.50;69.20;25.60;100812.00;;;;5074933;28;20185;-39
2022/08/01 01:54:07;;;;;;;3.38;2.80;;;24.50;69.40;25.50;100813.00;;;;5075140;28;20316;-39
2022/08/01 01:56:32;;;;;;;3.25;2.90;;;24.40;69.40;25.50;100814.00;;;;5074813;28;20263;-38
2022/08/01 01:59:01;;;;;;;4.03;2.92;;;24.40;69.50;25.50;100812.00;;;;5074741;28;20264;-38
2022/08/01 02:01:29;;;;;;;2.90;2.70;;;24.40;69.50;25.50;100806.00;;;;5075070;28;20257;-40
2022/08/01 02:03:56;;;;;;;3.15;2.85;;;24.40;69.60;25.50;100811.00;;;;5074729;28;20250;-39
2022/08/01 02:06:22;;;;;;;3.10;2.90;;;24.30;69.60;25.40;100804.00;;;;5074748;28;20177;-39
2022/08/01 02:08:48;;;;;;;3.60;3.05;;;24.40;69.80;25.40;100815.00;;;;5073408;28;20192;-39
2022/08/01 02:11:21;;;;;;;4.15;3.00;;;24.40;69.80;25.40;100813.00;;;;5095113;28;20153;-41
2022/08/01 02:13:58;;;;;;;3.70;3.10;;;24.30;69.50;25.40;100809.00;;;;5076165;28;20168;-39
2022/08/01 02:16:29;;;;;;;3.10;2.83;;;24.30;69.60;25.40;100802.00;;;;5076085;28;20834;-38
2022/08/01 02:18:55;;;;;;;2.90;2.70;;;24.30;69.70;25.40;100798.00;;;;5073869;28;20189;-39
2022/08/01 02:21:37;;;;;;;3.20;2.90;;;24.30;69.80;25.30;100802.00;;;;5073806;28;20218;-39
2022/08/01 02:24:27;;;;;;;3.73;3.20;;;24.30;70.10;25.30;100797.00;;;;5076362;28;20249;-40
2022/08/01 02:26:54;;;;;;;3.13;2.83;;;24.20;70.20;25.30;100795.00;;;;5073909;28;20266;-38
2022/08/01 02:29:49;;;;;;;3.37;2.83;;;24.20;70.00;25.30;100790.00;;;;5073837;28;20272;-41
2022/08/01 02:32:20;;;;;;;3.33;2.80;;;24.20;70.00;25.30;100789.00;;;;5076531;28;20238;-40
2022/08/01 02:34:47;;;;;;;3.00;2.70;;;24.30;69.80;25.30;100797.00;;;;5073996;28;20232;-40
2022/08/01 02:37:12;;;;;;;3.88;2.80;;;24.20;69.90;25.20;100799.00;;;;5073544;28;20186;-39
2022/08/01 02:39:38;;;;;;;3.30;3.00;;;24.20;69.80;25.20;100800.00;;;;5073939;28;20272;-39
2022/08/01 02:42:06;;;;;;;3.13;2.80;;;24.20;70.00;25.20;100797.00;;;;5073998;28;20204;-38
2022/08/01 02:44:36;;;;;;;3.80;2.83;;;24.20;70.20;25.20;100797.00;;;;5074140;28;20169;-39
2022/08/01 02:47:02;;;;;;;2.97;2.58;;;24.10;70.10;25.20;100797.00;;;;5093576;28;20153;-39
2022/08/01 02:49:37;;;;;;;2.80;2.50;;;24.10;70.20;25.20;100798.00;;;;5085354;28;20188;-38
2022/08/01 02:52:08;;;;;;;2.60;2.40;;;24.10;70.30;25.20;100787.00;;;;5104545;28;20169;-40
2022/08/01 02:54:34;;;;;;;2.97;2.63;;;24.20;70.00;25.20;100795.00;;;;5079387;28;20161;-38
2022/08/01 02:57:01;;;;;;;2.90;2.70;;;24.20;70.00;25.20;100803.00;;;;5092209;28;20177;-39
2022/08/01 02:59:26;;;;;;;3.03;2.40;;;24.20;69.70;25.20;100782.00;;;;5076473;28;20211;-40
2022/08/01 03:01:54;;;;;;;2.60;2.40;;;24.30;69.50;25.30;100783.00;;;;5076469;28;20252;-40
2022/08/01 03:04:20;;;;;;;3.20;2.77;;;24.30;69.30;25.30;100787.00;;;;5073796;28;20165;-39
2022/08/01 03:06:46;;;;;;;2.95;2.60;;;24.30;69.50;25.20;100795.00;;;;5073535;28;20260;-39
2022/08/01 03:09:11;;;;;;;3.70;2.80;;;24.30;69.50;25.30;100781.00;;;;5073110;28;20219;-39
2022/08/01 03:11:37;;;;;;;3.40;2.60;;;24.30;69.20;25.30;100781.00;;;;5073660;28;20157;-39
2022/08/01 03:14:05;;;;;;;3.07;2.60;;;24.30;70.00;25.20;100787.00;;;;5073765;28;20696;-40
2022/08/01 03:16:31;;;;;;;3.27;2.57;;;24.20;69.60;25.20;100794.00;;;;5073519;28;20588;-38
2022/08/01 03:18:57;;;;;;;3.90;2.90;;;24.30;69.70;25.20;100797.00;;;;5072910;28;20199;-40
2022/08/01 03:21:23;;;;;;;3.70;2.87;;;24.20;69.60;25.20;100790.00;;;;5073633;28;20169;-39
2022/08/01 03:23:50;;;;;;;3.63;2.90;;;24.20;69.90;25.20;100795.00;;;;5073302;28;20204;-37
2022/08/01 03:26:17;;;;;;;3.43;3.10;;;24.20;70.10;25.20;100803.00;;;;5073353;28;20169;-39
2022/08/01 03:28:42;;;;;;;3.30;3.00;;;24.10;70.10;25.20;100800.00;;;;5073319;28;20197;-39
2022/08/01 03:31:08;;;;;;;3.47;3.03;;;24.10;70.10;25.20;100801.00;;;;5072593;28;20643;-39
2022/08/01 03:33:34;;;;;;;3.80;3.07;;;24.10;70.10;25.20;100801.00;;;;5072549;28;20568;-38
2022/08/01 03:36:00;;;;;;;3.30;3.00;;;24.20;70.10;25.20;100804.00;;;;5073340;28;20184;-40
2022/08/01 03:38:26;;;;;;;3.97;2.90;;;24.10;70.10;25.20;100807.00;;;;5072454;28;20562;-40
2022/08/01 03:40:53;;;;;;;3.43;3.00;;;24.10;70.10;25.20;100809.00;;;;5073247;28;20177;-39
2022/08/01 03:43:30;;;;;;;3.87;2.87;;;24.10;70.20;25.10;100795.00;;;;5072795;28;20212;-38
2022/08/01 03:45:56;;;;;;;3.47;3.00;;;24.10;70.40;25.10;100799.00;;;;5073593;28;20161;-38
2022/08/01 03:48:26;;;;;;;3.37;3.07;;;24.00;70.30;25.10;100810.00;;;;5072298;28;20200;-39
2022/08/01 03:50:52;;;;;;;3.47;2.70;;;24.00;70.60;25.00;100820.00;;;;5073367;28;20191;-38
2022/08/01 03:53:22;;;;;;;4.10;3.10;;;24.00;70.70;25.00;100809.00;;;;5090636;28;20181;-40
2022/08/01 03:55:48;;;;;;;2.93;2.70;;;24.00;70.30;25.10;100804.00;;;;5067961;28;20180;-39
2022/08/01 03:58:14;;;;;;;4.37;3.20;;;24.10;70.20;25.10;100805.00;;;;5051261;28;20193;-39
2022/08/01 04:00:40;;;;;;;3.97;3.03;;;24.10;70.50;25.10;100807.00;;;;5052024;28;20180;-40
2022/08/01 04:03:07;;;;;;;3.40;3.10;;;24.00;70.30;25.10;100805.00;;;;5060840;28;20197;-38
2022/08/01 04:05:33;;;;;;;3.40;3.10;;;24.10;70.30;25.10;100807.00;;;;5058799;28;20640;-40
2022/08/01 04:08:01;;;;;;;4.43;3.37;;;24.10;70.10;25.10;100805.00;;;;5091949;28;20205;-39
2022/08/01 04:10:27;;;;;;;4.10;3.60;;;24.10;71.30;25.00;100806.00;;;;5112280;28;20185;-38
2022/08/01 04:12:53;;;;;;;4.73;3.80;;;23.90;70.80;25.00;100805.00;;;;5111545;28;20206;-40
2022/08/01 04:15:20;;;;;;;3.30;3.10;;;23.90;70.80;25.00;100804.00;;;;5072861;28;20172;-39
2022/08/01 04:17:45;;;;;;;4.73;3.47;;;24.00;70.90;25.00;100798.00;;;;5089476;28;20181;-38
2022/08/01 04:20:11;;;;;;;4.93;3.70;;;24.00;70.60;25.00;100802.00;;;;5088111;28;20245;-38
2022/08/01 04:22:37;;;;;;;3.67;3.30;;;24.00;70.90;25.00;100801.00;;;;5088639;28;20201;-43
2022/08/01 04:25:32;;;;;;;3.40;3.10;;;24.00;70.90;25.00;100799.00;;;;5087760;28;20726;-38
2022/08/01 04:27:57;;;;;;;4.60;4.20;;;24.00;70.70;25.00;100804.00;;;;5082379;28;20253;-39
2022/08/01 04:30:27;;;;;;;3.73;3.43;;;23.90;70.90;25.00;100803.00;;;;5086506;28;20837;-44
2022/08/01 04:32:54;;;;;;;5.00;4.10;;;23.90;71.20;24.90;100801.00;;;;5087952;28;20734;-38
2022/08/01 04:35:20;;;;;;;4.17;3.80;;;23.90;71.50;24.90;100807.00;;;;5095206;28;20173;-39
2022/08/01 04:37:46;;;;;;;4.47;4.07;;;23.90;72.20;24.90;100810.00;;;;5103165;28;20255;-37
2022/08/01 04:40:12;;;;;;;7.57;4.00;;;23.90;71.50;24.90;100816.00;;;;5106041;28;20164;-39
2022/08/01 04:42:38;;;;;;;5.80;4.30;;;23.90;71.60;24.90;100811.00;;;;5089312;28;20209;-38
2022/08/01 04:45:04;;;;;;;4.97;4.00;;;23.90;71.60;24.90;100811.00;;;;5087926;28;20230;-38
2022/08/01 04:47:30;;;;;;;5.67;4.50;;;23.90;71.60;24.90;100820.00;;;;5070209;28;20186;-40
2022/08/01 04:49:56;;;;;;;5.17;4.60;;;23.80;71.60;24.90;100806.00;;;;5069497;28;20189;-40
2022/08/01 04:52:22;;;;;;;5.30;4.80;;;23.80;71.80;24.80;100821.00;;;;5087219;28;20173;-38
2022/08/01 04:54:47;;;;;;;5.30;4.80;;;23.80;72.00;24.80;100832.00;;;;5087226;28;20175;-39
2022/08/01 04:57:14;;;;;;;5.70;5.17;;;23.80;72.10;24.80;100831.00;;;;5088156;28;20801;-39
2022/08/01 04:59:43;;;;;;;5.70;5.00;;;23.80;72.10;24.80;100844.00;;;;5088670;28;20196;-39
2022/08/01 05:02:16;;;;;;;6.07;5.17;;;23.80;72.20;24.80;100835.00;;;;5088834;28;20197;-39
2022/08/01 05:04:43;;;;;;;6.03;5.07;;;23.80;72.00;24.80;100837.00;;;;5088683;28;20172;-40
2022/08/01 05:07:09;;;;;;;6.83;5.50;;;23.80;71.80;24.80;100836.00;;;;5087966;28;20233;-39
2022/08/01 05:09:35;;;;;;;8.07;5.00;;;23.80;72.00;24.80;100839.00;;;;5088738;28;20242;-40
2022/08/01 05:12:02;;;;;;;6.43;5.20;;;23.80;71.40;24.80;100834.00;;;;5088395;28;20647;-38
2022/08/01 05:14:31;;;;;;;6.47;4.73;;;23.90;71.50;24.80;100844.00;;;;5088923;28;20173;-39
2022/08/01 05:17:02;;;;;;;6.57;5.30;;;23.90;71.10;24.80;100837.00;;;;5088436;28;20165;-39
2022/08/01 05:19:30;;;;;;;6.50;5.87;;;24.00;71.20;24.80;100844.00;;;;5088721;28;20239;-39
2022/08/01 05:21:56;;;;;;;6.77;6.13;;;24.00;71.10;24.90;100846.00;;;;5088547;28;20199;-41
2022/08/01 05:24:22;;;;;;;6.30;5.70;;;23.90;71.30;24.90;100837.00;;;;5088175;28;20165;-39
2022/08/01 05:26:48;;;;;;;6.97;5.83;;;23.90;71.20;24.90;100844.00;;;;5088691;28;20176;-39
2022/08/01 05:29:15;;;;;;;6.70;6.10;;;23.90;71.40;24.90;100847.00;;;;5087943;28;20231;-39
2022/08/01 05:31:41;;;;;;;8.10;6.40;;;23.90;71.50;24.80;100854.00;;;;5087860;28;20191;-39
2022/08/01 05:34:06;;;;;;;8.37;6.73;;;23.90;71.90;24.80;100849.00;;;;5088113;28;20177;-39
2022/08/01 05:36:32;;;;;;;7.67;6.97;;;23.80;72.10;24.80;100849.00;;;;5088524;28;20250;-39
2022/08/01 05:38:58;;;;;;;7.93;7.20;;;23.80;72.30;24.80;100849.00;;;;5087737;28;20188;-40
2022/08/01 05:41:24;;;;;;;8.10;7.30;;;23.70;72.30;24.80;100858.00;;;;5088276;28;20169;-39
2022/08/01 05:43:49;;;;;;;8.13;7.43;;;23.70;72.40;24.70;100862.00;;;;5091916;28;20217;-39
2022/08/01 05:46:15;;;;;;;7.97;7.17;;;23.70;72.60;24.70;100870.00;;;;5095173;28;20165;-39
2022/08/01 05:48:41;;;;;;;8.23;7.27;;;23.70;72.80;24.70;100866.00;;;;5088448;28;20189;-40
2022/08/01 05:51:07;;;;;;;7.93;7.17;;;23.60;72.80;24.70;100862.00;;;;5086851;28;20165;-39
2022/08/01 05:53:34;;;;;;;7.97;7.27;;;23.60;72.70;24.70;100869.00;;;;5087359;28;20606;-39
2022/08/01 05:56:00;;;;;;;7.57;6.80;;;23.60;72.60;24.70;100865.00;;;;5091244;28;20195;-40
2022/08/01 05:58:26;;;;;;;9.10;7.57;;;23.60;72.30;24.70;100861.00;;;;5091510;28;20188;-38
2022/08/01 06:00:52;;;;;;;7.33;6.63;;;23.70;72.10;24.70;100860.00;;;;5103385;28;20177;-39
2022/08/01 06:03:18;;;;;;;7.07;6.37;;;23.80;71.50;24.70;100862.00;;;;5108237;28;20823;-38
2022/08/01 06:05:44;;;;;;;8.67;6.93;;;23.80;70.90;24.70;100865.00;;;;5106555;28;20169;-38
2022/08/01 06:08:09;;;;;;;7.50;6.33;;;23.80;71.60;24.70;100861.00;;;;5092356;28;20185;-39
2022/08/01 06:10:36;;;;;;;6.60;6.00;;;23.80;71.30;24.80;100862.00;;;;5092267;28;20177;-40
2022/08/01 06:13:02;;;;;;;6.47;5.60;;;23.80;70.40;24.80;100864.00;;;;5091329;28;20165;-40
2022/08/01 06:15:32;;;;;;;6.20;5.60;;;23.80;70.30;24.80;100866.00;;;;5091658;28;20180;-38
2022/08/01 06:17:58;;;;;;;6.53;5.93;;;23.90;70.00;24.80;100861.00;;;;5091149;28;20551;-40
2022/08/01 06:20:24;;;;;;;6.20;5.70;;;23.90;70.40;24.80;100858.00;;;;5087273;28;20185;-38
2022/08/01 06:22:51;;;;;;;6.23;5.53;;;23.90;70.10;24.80;100870.00;;;;5091342;28;20199;-39
2022/08/01 06:25:18;;;;;;;6.00;5.37;;;23.90;69.80;24.80;100869.00;;;;5091894;28;20204;-38
2022/08/01 06:27:44;;;;;;;5.97;5.50;;;23.90;69.70;24.90;100862.00;;;;5091487;28;20177;-39
2022/08/01 06:30:10;;;;;;;6.50;5.90;;;23.90;70.00;24.80;100860.00;;;;5091458;28;20173;-39
2022/08/01 06:32:36;;;;;;;7.53;6.83;;;23.90;70.30;24.80;100873.00;;;;5091489;28;20168;-40
2022/08/01 06:35:02;;;;;;;8.23;7.53;;;23.90;70.30;24.80;100860.00;;;;5091958;28;20165;-40
2022/08/01 06:37:31;;;;;;;9.40;6.97;;;23.90;70.80;24.80;100862.00;;;;5093257;28;20165;-37
2022/08/01 06:40:04;;;;;;;7.10;6.50;;;23.90;71.10;24.80;100863.00;;;;5090884;28;20185;-38
2022/08/01 06:42:34;;;;;;;7.13;6.50;;;23.90;70.50;24.80;100854.00;;;;5089234;28;20196;-38
2022/08/01 06:45:10;;;;;;;7.50;6.87;;;23.90;71.10;24.80;100874.00;;;;5091201;28;20203;-38
2022/08/01 06:47:39;;;;;;;9.03;7.97;;;23.80;71.40;24.80;100865.00;;;;5090913;28;20161;-39
2022/08/01 06:50:06;;;;;;;8.67;7.63;;;23.80;71.30;24.80;100861.00;;;;5090200;28;20264;-38
2022/08/01 06:52:32;;;;;;;7.73;7.00;;;23.80;71.60;24.80;100860.00;;;;5072227;28;20807;-38
2022/08/01 06:54:59;;;;;;;7.93;6.93;;;23.80;71.60;24.80;100860.00;;;;5091317;28;20209;-39
2022/08/01 06:57:25;;;;;;;8.17;7.47;;;23.80;71.30;24.80;100864.00;;;;5089503;28;20173;-40
2022/08/01 06:59:50;;;;;;;7.50;6.80;;;23.80;71.50;24.80;100866.00;;;;5022770;28;20193;-40
2022/08/01 07:02:16;;;;;;;7.43;5.83;;;23.80;71.50;24.80;100859.00;;;;5083819;28;20197;-40
2022/08/01 07:04:42;;;;;;;6.83;6.13;;;23.80;71.00;24.80;100863.00;;;;5072643;28;20682;-40
2022/08/01 07:07:08;;;;;;;6.77;6.10;;;23.80;71.20;24.80;100856.00;;;;5089576;28;20685;-40
2022/08/01 07:09:34;;;;;;;6.50;5.90;;;23.80;71.00;24.80;100858.00;;;;5079542;28;20707;-40
2022/08/01 07:11:59;;;;;;;6.77;6.07;;;23.80;70.40;24.80;100863.00;;;;5076738;28;20548;-39
2022/08/01 07:14:25;;;;;;;8.87;7.70;;;23.90;70.80;24.80;100868.00;;;;5071420;28;20172;-39
2022/08/01 07:16:51;;;;;;;8.23;7.30;;;23.80;71.10;24.80;100865.00;;;;5051774;28;20173;-39
2022/08/01 07:19:17;;;;;;;9.47;7.83;;;23.80;71.10;24.80;100856.00;;;;5069993;28;20204;-41
2022/08/01 07:21:43;;;;;;;7.97;7.17;;;23.80;71.30;24.70;100862.00;;;;5068783;28;20158;-40
2022/08/01 07:24:12;;;;;;;7.03;6.30;;;23.80;71.20;24.70;100860.00;;;;5069552;28;20202;-39
2022/08/01 07:26:39;;;;;;;7.97;7.17;;;23.70;71.40;24.70;100861.00;;;;5044009;28;20697;-38
2022/08/01 07:29:05;;;;;;;7.80;7.10;;;23.70;71.50;24.70;100860.00;;;;5079349;28;20201;-40
2022/08/01 07:31:30;;;;;;;7.13;6.43;;;23.70;71.40;24.70;100875.00;;;;5067742;28;20190;-38
2022/08/01 07:33:56;;;;;;;6.43;5.93;;;23.70;71.30;24.70;100868.00;;;;5095573;28;20165;-40
2022/08/01 07:36:22;;;;;;;7.10;6.40;;;23.70;71.30;24.70;100853.00;;;;5090571;28;20185;-38
2022/08/01 07:38:48;;;;;;;5.97;5.57;;;23.70;71.20;24.70;100868.00;;;;5087975;28;20228;-40
2022/08/01 07:41:14;;;;;;;6.40;5.80;;;23.80;70.70;24.70;100863.00;;;;5087001;28;20185;-41
2022/08/01 07:43:40;;;;;;;7.13;6.00;;;23.80;70.70;24.70;100878.00;;;;5088462;28;20209;-39
2022/08/01 07:46:06;;;;;;;6.60;6.00;;;23.80;70.70;24.70;100877.00;;;;5089033;28;20166;-39
2022/08/01 07:48:32;;;;;;;6.10;5.50;;;23.80;70.70;24.70;100877.00;;;;5088779;28;20189;-38
2022/08/01 07:50:57;;;;;;;7.00;5.23;;;23.80;70.70;24.70;100876.00;;;;5087352;28;20200;-38
2022/08/01 07:53:23;;;;;;;5.20;4.80;;;23.80;70.00;24.70;100890.00;;;;5088379;28;21004;-38
2022/08/01 07:55:49;;;;;;;6.03;5.53;;;23.80;69.80;24.70;100889.00;;;;5088947;28;20180;-38
2022/08/01 07:58:15;;;;;;;7.53;6.93;;;23.80;69.80;24.50;100897.00;;;;5042461;28;20299;-39
2022/08/01 08:00:41;;;;;;;6.63;6.00;;;23.80;69.60;24.70;100899.00;;;;5086775;28;20183;-39
2022/08/01 08:03:07;;;;;;;7.77;7.10;;;23.90;69.90;24.70;100890.00;;;;5088100;28;20239;-39
2022/08/01 08:05:35;;;;;;;6.10;5.60;;;23.80;70.70;24.70;100888.00;;;;5088521;28;20177;-39
2022/08/01 08:08:08;;;;;;;6.40;5.80;;;23.80;71.10;24.70;100895.00;;;;5088135;28;20223;-38
2022/08/01 08:10:34;;;;;;;6.60;6.00;;;23.80;70.10;24.70;100886.00;;;;5093165;28;20191;-42
2022/08/01 08:13:01;;;;;;;6.00;5.40;;;23.80;70.80;24.70;100884.00;;;;5096964;28;20173;-38
2022/08/01 08:15:27;;;;;;;6.00;5.50;;;23.90;69.40;24.70;100886.00;;;;5095108;28;20703;-40
2022/08/01 08:17:53;;;;;;;5.50;5.00;;;23.90;69.40;24.70;100889.00;;;;5088600;28;20319;-40
2022/08/01 08:20:24;;;;;;;5.47;4.97;;;23.90;68.90;24.70;100890.00;;;;5092384;28;20224;-39
2022/08/01 08:22:53;;;;;;;7.73;5.33;;;23.90;69.10;24.70;100896.00;;;;5089840;28;20225;-39
2022/08/01 08:25:19;;;;;;;9.27;5.50;;;23.90;69.90;24.70;100899.00;;;;5088881;28;20206;-38
2022/08/01 08:27:46;;;;;;;6.67;5.20;;;23.90;69.80;24.70;100901.00;;;;5088141;28;20727;-40
2022/08/01 08:30:12;;;;;;;6.97;5.23;;;23.90;69.70;24.70;100896.00;;;;5088699;28;20662;-41
2022/08/01 08:32:38;;;;;;;6.47;5.10;;;23.90;70.10;24.80;100894.00;;;;5088999;28;20721;-42
2022/08/01 08:35:05;;;;;;;6.87;4.77;;;23.90;69.60;24.80;100892.00;;;;5088571;28;20180;-42
2022/08/01 08:37:31;;;;;;;6.33;4.50;;;24.00;69.20;24.80;100898.00;;;;5087887;28;20169;-42
2022/08/01 08:39:56;;;;;;;7.30;4.50;;;24.00;68.90;24.80;100892.00;;;;5088688;28;20196;-42
2022/08/01 08:42:22;;;;;;;7.73;4.73;;;24.00;68.80;24.80;100896.00;;;;5088226;28;20255;-42
2022/08/01 08:44:48;;;;;;;6.20;4.80;;;24.00;68.50;24.80;100897.00;;;;5070366;28;20212;-42
2022/08/01 08:47:14;;;;;;;7.43;4.60;;;24.10;68.40;24.80;100901.00;;;;5068294;28;20528;-41
2022/08/01 08:49:43;;;;;;;4.90;4.40;;;24.10;68.40;24.90;100899.00;;;;5087213;28;20303;-41
2022/08/01 08:52:09;;;;;;;4.70;4.30;;;24.10;68.40;24.80;100899.00;;;;5087064;28;20658;-41
2022/08/01 08:54:37;;;;;;;4.80;4.23;;;24.00;68.20;24.90;100904.00;;;;5074893;28;20177;-42
2022/08/01 08:57:03;;;;;;;4.70;4.30;;;24.00;68.20;24.90;100902.00;;;;5064603;28;20233;-43
2022/08/01 08:59:29;;;;;;;4.50;4.10;;;24.10;67.90;24.90;100903.00;;;;5022741;28;20560;-41
2022/08/01 09:01:56;;;;;;;3.90;3.60;;;24.10;67.60;25.00;100911.00;;;;5070647;28;20213;-42
2022/08/01 09:04:22;;;;;;;3.70;3.40;;;24.10;67.40;25.00;100900.00;;;;5061192;28;20621;-41
2022/08/01 09:06:48;;;;;;;3.80;3.50;;;24.10;67.40;25.00;100898.00;;;;5076001;28;20184;-42
2022/08/01 09:09:14;;;;;;;4.03;3.63;;;24.10;67.40;25.00;100898.00;;;;5087627;28;20871;-41
2022/08/01 09:11:40;;;;;;;4.07;3.77;;;24.10;67.40;25.00;100904.00;;;;5087879;28;20161;-41
2022/08/01 09:14:23;;;;;;;4.30;3.90;;;24.10;67.40;25.00;100909.00;;;;5088107;28;20173;-40
2022/08/01 09:17:08;;;;;;;4.00;3.65;;;24.10;67.30;25.00;100918.00;;;;5085917;28;20219;-42
2022/08/01 09:19:45;;;;;;;3.60;3.30;;;24.10;67.10;25.00;100918.00;;;;5086722;28;20262;-42
2022/08/01 09:22:13;;;;;;;4.10;3.70;;;24.10;67.20;25.00;100917.00;;;;5086956;28;20179;-41
2022/08/01 09:24:40;;;;;;;3.70;3.40;;;24.10;66.90;25.00;100919.00;;;;5087880;28;20179;-41
2022/08/01 09:27:23;;;;;;;3.70;3.40;;;24.10;66.90;25.00;100920.00;;;;5087756;28;20517;-43
2022/08/01 09:29:53;;;;;;;3.83;3.50;;;24.20;67.20;25.10;100920.00;;;;5087277;28;20700;-41
2022/08/01 09:32:20;;;;;;;4.07;3.40;;;24.20;67.30;25.10;100925.00;;;;5092061;28;20214;-42
2022/08/01 09:34:46;;;;;;;3.80;3.50;;;24.20;67.30;25.10;100855.00;;;;5091663;28;20230;-42
2022/08/01 09:37:13;;;;;;;3.85;3.55;;;24.20;67.20;25.10;100916.00;;;;5091682;28;20647;-41
2022/08/01 09:39:42;;;;;;;4.03;3.43;;;24.20;67.00;25.10;100914.00;;;;5074228;28;20213;-41
2022/08/01 09:42:27;;;;;;;3.53;3.22;;;24.20;66.90;25.20;100922.00;;;;5071516;28;20174;-41
2022/08/01 09:44:52;;;;;;;3.65;3.35;;;24.20;66.80;25.20;100922.00;;;;5072148;28;20165;-42
2022/08/01 09:47:20;;;;;;;3.70;3.40;;;24.30;66.70;25.20;100923.00;;;;5071626;28;20655;-42
2022/08/01 09:49:53;;;;;;;3.53;3.22;;;24.20;66.90;25.20;100886.00;;;;5071337;28;20193;-42
2022/08/01 09:52:21;;;;;;;6.20;3.47;;;24.20;67.00;25.20;100926.00;;;;5091140;28;20157;-42
2022/08/01 09:54:59;;;;;;;3.38;3.17;;;24.20;67.00;25.20;100932.00;;;;5077438;28;20612;-42
2022/08/01 09:57:25;;;;;;;3.40;3.20;;;24.30;67.10;25.20;100925.00;;;;5054313;28;20162;-42
2022/08/01 09:59:53;;;;;;;3.50;3.20;;;24.30;67.10;25.20;100917.00;;;;5020811;28;20275;-42
2022/08/01 10:02:41;;;;;;;3.42;3.22;;;24.30;67.00;25.20;100927.00;;;;5071758;28;20223;-43
2022/08/01 10:05:09;;;;;;;3.55;3.35;;;24.30;67.00;25.20;100928.00;;;;5072618;28;20169;-41
2022/08/01 10:07:57;;;;;;;3.70;3.40;;;24.30;67.10;25.30;100922.00;;;;5054658;28;20158;-41
2022/08/01 10:10:23;;;;;;;4.10;3.30;;;24.30;67.10;25.30;100903.00;;;;5072084;28;20235;-41
2022/08/01 10:12:48;;;;;;;3.83;3.30;;;24.30;67.00;25.30;100891.00;;;;5072026;28;20679;-42
2022/08/01 10:15:16;;;;;;;3.50;3.20;;;24.40;67.20;25.30;100897.00;;;;5054113;28;20223;-41
2022/08/01 10:17:41;;;;;;;3.00;2.80;;;24.40;67.20;25.30;100915.00;;;;5054138;28;20178;-41
2022/08/01 10:20:08;;;;;;;3.30;3.10;;;24.40;67.20;25.30;100891.00;;;;5053692;28;20211;-42
2022/08/01 10:22:34;;;;;;;3.30;3.00;;;24.40;67.20;25.40;100910.00;;;;5037132;28;20202;-41
2022/08/01 10:25:03;;;;;;;3.80;3.50;;;24.40;67.00;25.40;100906.00;;;;5054078;28;20181;-42
2022/08/01 10:27:28;;;;;;;3.50;3.30;;;24.40;66.90;25.40;100886.00;;;;5053501;28;20176;-42
2022/08/01 10:30:05;;;;;;;3.42;3.20;;;24.40;66.70;25.40;100910.00;;;;5053556;28;20219;-42
2022/08/01 10:32:31;;;;;;;3.40;3.10;;;24.40;66.50;25.40;100915.00;;;;5075017;28;20172;-42
2022/08/01 10:34:58;;;;;;;3.47;3.20;;;24.50;66.60;25.40;100912.00;;;;5076469;28;20170;-42
2022/08/01 10:37:24;;;;;;;3.20;2.70;;;24.40;66.70;25.40;100922.00;;;;5055930;28;20173;-42
2022/08/01 10:39:51;;;;;;;3.45;2.97;;;24.40;66.60;25.50;100913.00;;;;5071438;28;20186;-42
2022/08/01 10:42:17;;;;;;;3.33;3.10;;;24.50;66.70;25.50;100912.00;;;;5053144;28;20211;-41
2022/08/01 10:44:46;;;;;;;3.25;3.00;;;24.50;66.60;25.50;100907.00;;;;5053587;28;20166;-42
2022/08/01 10:47:13;;;;;;;3.10;2.90;;;24.50;66.40;25.50;100907.00;;;;5055247;28;20180;-42
2022/08/01 10:49:49;;;;;;;3.22;2.90;;;24.50;66.40;25.50;100910.00;;;;5074161;28;20185;-42
2022/08/01 10:52:19;;;;;;;3.17;2.95;;;24.50;66.30;25.50;100897.00;;;;5058072;28;20153;-41